createdAt,value
2017-02-19T00:05:47.663Z,0
2017-02-19T00:15:47.611Z,0
2017-02-19T00:26:13.054Z,0
2017-02-19T00:36:13.790Z,0
2017-02-19T00:46:13.014Z,0
2017-02-19T00:56:12.970Z,0
2017-02-19T01:06:13.073Z,0
2017-02-19T01:16:13.917Z,0
2017-02-19T01:26:12.980Z,0
2017-02-19T01:36:13.010Z,0
2017-02-19T01:46:13.032Z,0
2017-02-19T01:56:12.936Z,0
2017-02-19T02:06:12.988Z,0
2017-02-19T02:16:12.980Z,0
2017-02-19T02:26:13.742Z,0
2017-02-19T02:36:12.969Z,0
2017-02-19T02:46:12.969Z,0
2017-02-19T02:56:13.299Z,0
2017-02-19T03:06:12.945Z,0
2017-02-19T03:16:12.949Z,0
2017-02-19T03:26:12.970Z,0
2017-02-19T03:36:12.920Z,0
2017-02-19T03:46:13.003Z,0
2017-02-19T03:56:12.961Z,0
2017-02-19T04:06:12.922Z,0
2017-02-19T04:16:13.013Z,0
2017-02-19T04:26:12.970Z,0
2017-02-19T04:36:13.029Z,0
2017-02-19T04:46:12.956Z,0
2017-02-19T04:56:13.019Z,0
2017-02-19T05:06:13.017Z,0
2017-02-19T05:16:13.058Z,0
2017-02-19T05:26:13.034Z,0
2017-02-19T05:36:13.087Z,0
2017-02-19T05:46:13.077Z,0
2017-02-19T05:56:13.013Z,0
2017-02-19T06:06:13.056Z,0
2017-02-19T06:16:13.044Z,0
2017-02-19T06:26:13.081Z,0
2017-02-19T06:36:13.057Z,5
2017-02-19T06:46:13.108Z,5
2017-02-19T06:56:13.079Z,20
2017-02-19T07:06:13.140Z,35
2017-02-19T07:16:13.101Z,55
2017-02-19T07:26:13.166Z,60
2017-02-19T07:36:13.123Z,70
2017-02-19T07:46:13.200Z,80
2017-02-19T07:56:13.162Z,105
2017-02-19T08:06:13.131Z,80
2017-02-19T08:16:13.179Z,65
2017-02-19T08:26:13.190Z,85
2017-02-19T08:36:13.204Z,95
2017-02-19T08:46:13.138Z,100
2017-02-19T08:56:13.235Z,60
2017-02-19T09:06:13.231Z,80
2017-02-19T09:16:13.407Z,120
2017-02-19T09:26:13.229Z,150
2017-02-19T09:36:23.133Z,120
2017-02-19T09:46:24.317Z,185
2017-02-19T09:56:23.187Z,145
2017-02-19T10:06:13.336Z,155
2017-02-19T10:16:13.453Z,195
2017-02-19T10:26:14.100Z,150
2017-02-19T10:36:13.330Z,145
2017-02-19T10:46:17.854Z,110
2017-02-19T10:56:14.301Z,60
2017-02-19T11:06:14.434Z,60
2017-02-19T11:16:13.414Z,60
2017-02-19T11:26:15.648Z,50
2017-02-19T11:36:13.486Z,50
2017-02-19T11:46:13.337Z,70
2017-02-19T11:56:13.401Z,80
2017-02-19T12:06:13.370Z,50
2017-02-19T12:16:13.524Z,95
2017-02-19T12:26:13.374Z,105
2017-02-19T12:36:13.442Z,65
2017-02-19T12:46:13.366Z,140
2017-02-19T12:56:13.398Z,120
2017-02-19T13:06:13.407Z,75
2017-02-19T13:16:13.481Z,100
2017-02-19T13:26:13.406Z,120
2017-02-19T13:36:13.562Z,110
2017-02-19T13:46:13.508Z,140
2017-02-19T13:56:13.446Z,110
2017-02-19T14:06:13.500Z,100
2017-02-19T14:16:13.484Z,50
2017-02-19T14:26:13.532Z,40
2017-02-19T14:36:13.590Z,35
2017-02-19T14:46:13.594Z,40
2017-02-19T14:56:13.695Z,30
2017-02-19T15:06:13.906Z,25
2017-02-19T15:16:13.518Z,35
2017-02-19T15:26:13.657Z,35
2017-02-19T15:36:13.593Z,30
2017-02-19T15:46:16.692Z,25
2017-02-19T15:56:19.098Z,15
2017-02-19T16:06:13.707Z,15
2017-02-19T16:16:31.439Z,10
2017-02-19T16:26:20.732Z,5
2017-02-19T16:46:20.572Z,0
2017-02-19T16:56:20.789Z,0
2017-02-19T17:06:13.698Z,0
2017-02-19T17:16:30.289Z,0
2017-02-19T17:26:22.783Z,0
2017-02-19T17:36:25.162Z,0
2017-02-19T17:46:16.210Z,0
2017-02-19T17:56:13.593Z,0
2017-02-19T18:06:27.282Z,0
2017-02-19T18:16:36.371Z,0
2017-02-19T18:26:23.824Z,0
2017-02-19T18:36:24.773Z,0
2017-02-19T18:46:34.650Z,0
2017-02-19T18:56:35.397Z,0
2017-02-19T20:06:23.059Z,0
2017-02-19T20:16:38.824Z,0
2017-02-19T20:26:38.930Z,0
2017-02-19T20:36:32.777Z,0
2017-02-19T20:56:51.259Z,0
2017-02-19T21:06:13.939Z,0
2017-02-19T21:16:25.934Z,0
2017-02-19T21:26:13.890Z,0
2017-02-19T21:36:34.452Z,0
2017-02-19T21:46:31.248Z,0
2017-02-19T22:06:13.944Z,0
2017-02-19T22:17:01.811Z,0
2017-02-19T22:26:26.230Z,0
2017-02-19T22:36:32.066Z,0
2017-02-19T22:46:16.744Z,0
2017-02-19T22:56:13.893Z,0
2017-02-19T23:06:26.248Z,0
2017-02-19T23:36:49.962Z,0
2017-02-19T23:46:18.979Z,0
2017-02-19T23:56:26.201Z,0
